Alton, Illinois
Current Conditions -  °F | °C
As of 4:45 PM on Sunday 21 Dec 2014 (Local Time) from KALN Reporting Station
Overcast Overcast  
Wind Chill: 34°   Ceiling: 4400
Heat Index: 41°   Visibility: 10mi
Dew Point: 30°   Wind: 12mph
Humidity: 65%   Direction: 150°SSE
Pressure: 30.03"   Gusts: NA
Location:  38.89°N, 90.18°W
Report Text: KALN 212245Z 15010KT 10SM OVC044 05/M01 A3003
Loading
Personal Weather Stations






























Interactive Weather Map New forecast layout! Learn more

10-Day Weather Forecast

Advertisements
Track Severe Weather on mobile